createdAt,value
2022-09-29T00:01:04.029Z,7.70
2022-09-29T00:03:31.041Z,7.60
2022-09-29T00:05:57.927Z,7.60
2022-09-29T00:08:28.469Z,7.50
2022-09-29T00:10:55.822Z,7.50
2022-09-29T00:13:23.133Z,7.50
2022-09-29T00:16:02.202Z,7.50
2022-09-29T00:18:31.944Z,7.40
2022-09-29T00:21:09.118Z,7.40
2022-09-29T00:23:37.379Z,7.40
2022-09-29T00:26:21.902Z,7.30
2022-09-29T00:28:56.818Z,7.30
2022-09-29T00:31:30.619Z,7.30
2022-09-29T00:33:57.956Z,7.30
2022-09-29T00:36:28.904Z,7.30
2022-09-29T00:38:56.897Z,7.30
2022-09-29T00:41:34.595Z,7.20
2022-09-29T00:44:07.782Z,7.20
2022-09-29T00:47:04.831Z,7.20
2022-09-29T00:49:46.976Z,7.10
2022-09-29T00:52:30.476Z,7.10
2022-09-29T00:55:09.806Z,7.10
2022-09-29T00:57:45.572Z,7.10
2022-09-29T01:00:15.740Z,7.00
2022-09-29T01:03:14.789Z,7.00
2022-09-29T01:05:49.313Z,7.00
2022-09-29T01:08:39.404Z,7.00
2022-09-29T01:11:06.635Z,6.90
2022-09-29T01:13:35.062Z,6.80
2022-09-29T01:16:02.121Z,6.90
2022-09-29T01:18:30.775Z,6.80
2022-09-29T01:21:36.566Z,6.80
2022-09-29T01:24:57.542Z,6.80
2022-09-29T01:27:48.837Z,6.90
2022-09-29T01:30:47.677Z,6.90
2022-09-29T01:34:06.152Z,6.80
2022-09-29T01:37:00.813Z,6.70
2022-09-29T01:39:43.476Z,6.70
2022-09-29T01:42:14.943Z,6.70
2022-09-29T01:45:02.695Z,6.70
2022-09-29T01:47:41.698Z,6.70
2022-09-29T01:50:27.011Z,6.70
2022-09-29T01:53:01.632Z,6.70
2022-09-29T01:55:35.337Z,6.70
2022-09-29T01:58:19.829Z,6.60
2022-09-29T02:00:57.057Z,6.60
2022-09-29T02:03:55.173Z,6.60
2022-09-29T02:06:40.180Z,6.60
2022-09-29T02:09:20.500Z,6.60
2022-09-29T02:11:52.942Z,6.60
2022-09-29T02:14:30.793Z,6.50
2022-09-29T02:17:10.763Z,6.50
2022-09-29T02:19:43.147Z,6.50
2022-09-29T02:22:10.000Z,6.40
2022-09-29T02:24:37.062Z,6.40
2022-09-29T02:27:06.349Z,6.40
2022-09-29T02:29:35.799Z,6.40
2022-09-29T02:32:09.679Z,6.30
2022-09-29T02:34:43.518Z,6.40
2022-09-29T02:37:46.133Z,6.30
2022-09-29T02:40:36.115Z,6.30
2022-09-29T02:43:32.967Z,6.30
2022-09-29T02:46:15.126Z,6.20
2022-09-29T02:49:28.516Z,6.20
2022-09-29T02:52:04.928Z,6.20
2022-09-29T02:54:55.517Z,6.10
2022-09-29T02:58:11.329Z,6.10
2022-09-29T03:00:39.628Z,6.20
2022-09-29T03:03:06.395Z,6.10
2022-09-29T03:05:33.575Z,6.10
2022-09-29T03:08:00.412Z,6.00
2022-09-29T03:10:30.204Z,6.00
2022-09-29T03:12:57.379Z,6.10
2022-09-29T03:15:24.416Z,6.00
2022-09-29T03:17:56.520Z,6.00
2022-09-29T03:20:23.679Z,6.00
2022-09-29T03:22:50.865Z,6.00
2022-09-29T03:25:17.643Z,6.00
2022-09-29T03:27:44.459Z,5.90
2022-09-29T03:30:13.183Z,5.80
2022-09-29T03:32:39.935Z,5.90
2022-09-29T03:35:07.715Z,5.80
2022-09-29T03:37:34.575Z,5.80
2022-09-29T03:40:02.289Z,5.80
2022-09-29T03:42:29.011Z,5.80
2022-09-29T03:44:55.895Z,5.80
2022-09-29T03:47:22.659Z,5.80
2022-09-29T03:49:49.515Z,5.80
2022-09-29T03:52:16.579Z,5.80
2022-09-29T03:54:43.311Z,5.80
2022-09-29T03:57:10.072Z,5.80
2022-09-29T03:59:36.891Z,5.70
2022-09-29T04:02:04.124Z,5.70
2022-09-29T04:04:31.123Z,5.70
2022-09-29T04:06:57.899Z,5.70
2022-09-29T04:09:24.703Z,5.70
2022-09-29T04:11:51.501Z,5.60
2022-09-29T04:14:18.279Z,5.60
2022-09-29T04:16:45.112Z,5.60
2022-09-29T04:19:11.885Z,5.70
2022-09-29T04:21:38.679Z,5.70
2022-09-29T04:24:05.704Z,5.70
2022-09-29T04:26:32.521Z,5.70
2022-09-29T04:28:59.255Z,5.70
2022-09-29T04:31:26.347Z,5.60
2022-09-29T04:33:53.148Z,5.70
2022-09-29T04:36:19.923Z,5.60
2022-09-29T04:38:46.724Z,5.60
2022-09-29T04:41:13.443Z,5.60
2022-09-29T04:43:40.183Z,5.60
2022-09-29T04:46:08.805Z,5.60
2022-09-29T04:48:36.561Z,5.60
2022-09-29T04:51:04.875Z,5.50
2022-09-29T04:53:32.167Z,5.50
2022-09-29T04:55:59.209Z,5.60
2022-09-29T04:58:26.029Z,5.50
2022-09-29T05:00:52.838Z,5.60
2022-09-29T05:03:19.632Z,5.50
2022-09-29T05:05:46.339Z,5.50
2022-09-29T05:08:13.084Z,5.50
2022-09-29T05:10:39.938Z,5.40
2022-09-29T05:13:06.755Z,5.30
2022-09-29T05:15:33.582Z,5.40
2022-09-29T05:18:03.898Z,5.40
2022-09-29T05:20:38.309Z,5.40
2022-09-29T05:23:10.182Z,5.40
2022-09-29T05:25:38.212Z,5.40
2022-09-29T05:28:05.101Z,5.40
2022-09-29T05:30:31.975Z,5.40
2022-09-29T05:32:59.233Z,5.40
2022-09-29T05:35:26.217Z,5.40
2022-09-29T05:37:53.185Z,5.40
2022-09-29T05:40:23.974Z,5.40
2022-09-29T05:42:51.664Z,5.50
2022-09-29T05:45:18.928Z,5.50
2022-09-29T05:47:46.135Z,5.50
2022-09-29T05:50:13.992Z,5.60
2022-09-29T05:52:40.880Z,5.50
2022-09-29T05:55:09.563Z,5.60
2022-09-29T05:57:37.155Z,5.60
2022-09-29T06:00:06.267Z,5.60
2022-09-29T06:02:38.307Z,5.70
2022-09-29T06:05:06.054Z,5.70
2022-09-29T06:07:33.097Z,5.70
2022-09-29T06:09:59.893Z,5.70
2022-09-29T06:12:26.720Z,5.80
2022-09-29T06:14:53.435Z,5.80
2022-09-29T06:17:20.279Z,5.80
2022-09-29T06:19:47.181Z,5.90
2022-09-29T06:22:13.923Z,5.90
2022-09-29T06:24:40.676Z,6.00
2022-09-29T06:27:07.509Z,6.10
2022-09-29T06:29:34.273Z,6.20
2022-09-29T06:32:01.389Z,6.20
2022-09-29T06:34:28.309Z,6.20
2022-09-29T06:37:13.540Z,6.30
2022-09-29T06:39:40.396Z,6.30
2022-09-29T06:42:07.165Z,6.40
2022-09-29T06:44:33.982Z,6.50
2022-09-29T06:47:00.949Z,6.50
2022-09-29T06:49:27.831Z,6.60
2022-09-29T06:51:54.668Z,6.60
2022-09-29T06:54:25.036Z,6.70
2022-09-29T06:56:53.811Z,6.80
2022-09-29T06:59:20.966Z,6.90
2022-09-29T07:01:50.033Z,6.90
2022-09-29T07:04:18.423Z,6.90
2022-09-29T07:06:45.778Z,7.00
2022-09-29T07:09:16.099Z,7.00
2022-09-29T07:11:46.691Z,7.00
2022-09-29T07:14:19.905Z,7.10
2022-09-29T07:16:48.284Z,7.30
2022-09-29T07:19:16.751Z,7.30
2022-09-29T07:21:44.595Z,7.40
2022-09-29T07:24:11.605Z,7.50
2022-09-29T07:26:38.603Z,7.60
2022-09-29T07:29:05.577Z,7.70
2022-09-29T07:31:42.798Z,7.80
2022-09-29T07:34:12.019Z,7.90
2022-09-29T07:36:39.035Z,8.00
2022-09-29T07:39:05.845Z,8.10
2022-09-29T07:41:32.859Z,8.10
2022-09-29T07:43:59.962Z,8.20
2022-09-29T07:46:26.970Z,8.30
2022-09-29T07:48:53.739Z,8.40
2022-09-29T07:51:21.121Z,8.50
2022-09-29T07:53:48.804Z,8.60
2022-09-29T07:56:22.407Z,8.70
2022-09-29T07:58:50.593Z,8.80
2022-09-29T08:01:19.894Z,8.80
2022-09-29T08:03:55.193Z,8.70
2022-09-29T08:06:26.534Z,8.80
2022-09-29T08:09:03.321Z,8.90
2022-09-29T08:11:36.638Z,8.90
2022-09-29T08:14:03.576Z,8.90
2022-09-29T08:16:31.086Z,8.90
2022-09-29T08:18:59.561Z,9.00
2022-09-29T08:21:26.915Z,9.10
2022-09-29T08:23:53.644Z,9.10
2022-09-29T08:26:36.171Z,9.20
2022-09-29T08:29:09.082Z,9.20
2022-09-29T08:31:38.011Z,9.30
2022-09-29T08:34:05.936Z,9.40
2022-09-29T08:36:32.878Z,9.40
2022-09-29T08:39:00.094Z,9.40
2022-09-29T08:41:51.864Z,9.40
2022-09-29T08:44:37.066Z,9.50
2022-09-29T08:47:18.293Z,9.50
2022-09-29T08:49:57.064Z,9.70
2022-09-29T08:52:40.453Z,9.80
2022-09-29T08:55:20.960Z,9.80
2022-09-29T08:57:57.188Z,9.80
2022-09-29T09:00:43.589Z,9.80
2022-09-29T09:03:50.971Z,9.70
2022-09-29T09:06:30.659Z,9.80
2022-09-29T09:09:37.629Z,10.00
2022-09-29T09:12:36.960Z,10.00
2022-09-29T09:15:46.388Z,10.10
2022-09-29T09:18:28.391Z,10.10
2022-09-29T09:21:19.246Z,10.30
2022-09-29T09:23:59.799Z,10.20
2022-09-29T09:26:46.779Z,10.20
2022-09-29T09:29:42.613Z,10.50
2022-09-29T09:32:33.177Z,10.70
2022-09-29T09:35:24.865Z,11.10
2022-09-29T09:37:55.344Z,11.10
2022-09-29T09:40:32.084Z,11.10
2022-09-29T09:43:27.605Z,11.30
2022-09-29T09:46:08.514Z,11.50
2022-09-29T09:49:09.860Z,11.60
2022-09-29T09:51:59.917Z,11.90
2022-09-29T09:54:38.063Z,12.20
2022-09-29T09:57:39.830Z,12.10
2022-09-29T10:00:19.412Z,12.20
2022-09-29T10:02:51.075Z,12.20
2022-09-29T10:05:36.964Z,12.70
2022-09-29T10:08:07.186Z,12.70
2022-09-29T10:10:34.172Z,13.00
2022-09-29T10:13:13.379Z,13.00
2022-09-29T10:15:55.902Z,13.10
2022-09-29T10:18:46.305Z,13.20
2022-09-29T10:21:29.577Z,13.10
2022-09-29T10:24:00.731Z,13.20
2022-09-29T10:26:35.617Z,13.30
2022-09-29T10:29:21.675Z,13.40
2022-09-29T10:32:44.265Z,13.30
2022-09-29T10:35:17.212Z,13.50
2022-09-29T10:37:58.625Z,13.50
2022-09-29T10:40:25.449Z,13.40
2022-09-29T10:42:53.452Z,13.50
2022-09-29T10:45:27.047Z,13.50
2022-09-29T10:48:00.273Z,13.60
2022-09-29T10:50:37.520Z,13.70
2022-09-29T10:53:24.370Z,13.50
2022-09-29T10:55:56.012Z,13.60
2022-09-29T10:58:45.657Z,13.60
2022-09-29T11:01:22.770Z,13.80
2022-09-29T11:04:15.380Z,13.90
2022-09-29T11:06:44.276Z,13.90
2022-09-29T11:09:15.532Z,14.00
2022-09-29T11:11:48.463Z,13.80
2022-09-29T11:14:35.936Z,13.80
2022-09-29T11:17:27.406Z,14.00
2022-09-29T11:19:59.646Z,14.00
2022-09-29T11:22:42.392Z,13.80
2022-09-29T11:25:40.756Z,13.90
2022-09-29T11:28:25.393Z,14.10
2022-09-29T11:31:32.746Z,14.20
2022-09-29T11:34:49.756Z,14.30
2022-09-29T11:37:59.385Z,14.30
2022-09-29T11:40:48.980Z,14.50
2022-09-29T11:43:30.779Z,14.70
2022-09-29T11:46:28.395Z,14.60
2022-09-29T11:49:14.783Z,14.60
2022-09-29T11:52:07.288Z,14.80
2022-09-29T11:55:05.434Z,14.80
2022-09-29T11:58:33.868Z,14.80
2022-09-29T12:01:27.537Z,14.90
2022-09-29T12:04:21.458Z,14.80
2022-09-29T12:07:40.896Z,14.70
2022-09-29T12:10:30.157Z,15.00
2022-09-29T12:13:30.167Z,15.20
2022-09-29T12:16:04.214Z,15.40
2022-09-29T12:18:49.838Z,15.40
2022-09-29T12:21:34.768Z,15.70
2022-09-29T12:24:10.315Z,15.70
2022-09-29T12:26:39.348Z,15.50
2022-09-29T12:29:32.800Z,15.60
2022-09-29T12:32:09.112Z,15.80
2022-09-29T12:35:09.693Z,15.70
2022-09-29T12:37:49.597Z,15.70
2022-09-29T12:40:32.916Z,15.50
2022-09-29T12:43:32.779Z,15.50
2022-09-29T12:46:10.182Z,15.40
2022-09-29T12:49:01.990Z,15.20
2022-09-29T12:51:38.700Z,15.10
2022-09-29T12:54:28.777Z,15.10
2022-09-29T12:57:01.511Z,15.20
2022-09-29T12:59:57.782Z,15.10
2022-09-29T13:02:53.885Z,15.10
2022-09-29T13:06:06.586Z,15.10
2022-09-29T13:09:21.451Z,15.00
2022-09-29T13:12:37.532Z,15.10
2022-09-29T13:15:49.049Z,14.90
2022-09-29T13:18:21.942Z,15.00
2022-09-29T13:21:01.435Z,15.20
2022-09-29T13:24:07.803Z,15.30
2022-09-29T13:27:02.662Z,15.30
2022-09-29T13:29:32.159Z,15.30
2022-09-29T13:32:02.257Z,15.40
2022-09-29T13:34:37.687Z,15.40
2022-09-29T13:37:27.044Z,15.50
2022-09-29T13:40:09.110Z,15.50
2022-09-29T13:42:45.575Z,15.50
2022-09-29T13:45:21.340Z,15.50
2022-09-29T13:47:54.682Z,15.40
2022-09-29T13:50:49.992Z,15.30
2022-09-29T13:53:19.756Z,15.30
2022-09-29T13:56:06.078Z,15.30
2022-09-29T13:58:47.871Z,15.20
2022-09-29T14:01:33.765Z,15.20
2022-09-29T14:04:43.595Z,15.30
2022-09-29T14:07:34.012Z,15.30
2022-09-29T14:10:36.303Z,15.20
2022-09-29T14:13:27.762Z,15.20
2022-09-29T14:16:48.272Z,15.20
2022-09-29T14:19:31.132Z,15.10
2022-09-29T14:22:00.786Z,15.20
2022-09-29T14:24:42.210Z,15.20
2022-09-29T14:27:24.577Z,15.20
2022-09-29T14:30:08.903Z,15.30
2022-09-29T14:32:59.582Z,15.30
2022-09-29T14:35:43.280Z,15.30
2022-09-29T14:38:21.097Z,15.20
2022-09-29T14:41:06.279Z,15.30
2022-09-29T14:43:46.311Z,15.30
2022-09-29T14:46:59.758Z,15.20
2022-09-29T14:49:56.935Z,15.30
2022-09-29T14:52:56.114Z,15.10
2022-09-29T14:56:14.316Z,15.20
2022-09-29T14:59:10.856Z,15.00
2022-09-29T15:01:57.312Z,15.10
2022-09-29T15:04:24.187Z,15.20
2022-09-29T15:06:52.477Z,15.20
2022-09-29T15:09:23.783Z,15.20
2022-09-29T15:11:53.799Z,15.10
2022-09-29T15:14:27.667Z,15.10
2022-09-29T15:17:37.983Z,15.10
2022-09-29T15:20:51.058Z,15.00
2022-09-29T15:24:04.321Z,15.00
2022-09-29T15:26:33.693Z,14.90
2022-09-29T15:29:05.889Z,14.90
2022-09-29T15:31:34.285Z,14.90
2022-09-29T15:34:04.429Z,14.90
2022-09-29T15:36:39.721Z,14.90
2022-09-29T15:39:38.641Z,14.90
2022-09-29T15:42:23.820Z,14.90
2022-09-29T15:45:02.777Z,14.90
2022-09-29T15:47:39.208Z,14.80
2022-09-29T15:50:22.263Z,14.90
2022-09-29T15:52:50.513Z,14.80
2022-09-29T15:55:24.700Z,14.90
2022-09-29T15:57:58.878Z,14.80
2022-09-29T16:00:26.785Z,14.90
2022-09-29T16:03:27.199Z,14.80
2022-09-29T16:06:28.380Z,14.70
2022-09-29T16:09:03.850Z,14.80
2022-09-29T16:11:35.970Z,14.80
2022-09-29T16:14:28.062Z,14.80
2022-09-29T16:16:56.102Z,14.70
2022-09-29T16:19:32.588Z,14.60
2022-09-29T16:22:06.489Z,14.70
2022-09-29T16:25:07.859Z,14.60
2022-09-29T16:27:46.571Z,14.60
2022-09-29T16:30:28.811Z,14.40
2022-09-29T16:33:14.693Z,14.40
2022-09-29T16:35:48.647Z,14.40
2022-09-29T16:38:35.440Z,14.40
2022-09-29T16:41:37.701Z,14.30
2022-09-29T16:44:26.609Z,14.30
2022-09-29T16:46:55.005Z,14.20
2022-09-29T16:49:29.599Z,14.10
2022-09-29T16:52:02.269Z,14.00
2022-09-29T16:54:40.415Z,13.80
2022-09-29T16:57:30.049Z,13.70
2022-09-29T17:00:06.712Z,13.60
2022-09-29T17:02:34.488Z,13.40
2022-09-29T17:05:04.895Z,13.30
2022-09-29T17:07:32.123Z,13.20
2022-09-29T17:10:01.450Z,13.10
2022-09-29T17:12:30.394Z,13.00
2022-09-29T17:14:57.668Z,13.00
2022-09-29T17:17:27.700Z,12.90
2022-09-29T17:19:56.630Z,12.90
2022-09-29T17:22:36.653Z,12.70
2022-09-29T17:25:04.774Z,12.60
2022-09-29T17:27:50.254Z,12.50
2022-09-29T17:30:23.258Z,12.40
2022-09-29T17:32:53.999Z,12.30
2022-09-29T17:35:29.883Z,12.30
2022-09-29T17:37:57.091Z,12.20
2022-09-29T17:40:48.807Z,12.10
2022-09-29T17:43:17.643Z,12.10
2022-09-29T17:45:45.813Z,12.00
2022-09-29T17:48:13.320Z,11.90
2022-09-29T17:50:49.717Z,11.80
2022-09-29T17:53:18.459Z,11.70
2022-09-29T17:55:51.333Z,11.60
2022-09-29T17:58:19.517Z,11.60
2022-09-29T18:00:53.323Z,11.50
2022-09-29T18:03:21.948Z,11.50
2022-09-29T18:05:56.738Z,11.40
2022-09-29T18:08:26.291Z,11.40
2022-09-29T18:11:01.408Z,11.40
2022-09-29T18:13:31.874Z,11.30
2022-09-29T18:16:01.262Z,11.20
2022-09-29T18:18:28.515Z,11.10
2022-09-29T18:20:55.506Z,11.10
2022-09-29T18:23:23.962Z,11.10
2022-09-29T18:25:52.726Z,11.00
2022-09-29T18:28:20.183Z,11.00
2022-09-29T18:30:52.172Z,10.90
2022-09-29T18:33:20.772Z,10.90
2022-09-29T18:35:53.554Z,10.80
2022-09-29T18:38:21.511Z,10.70
2022-09-29T18:40:51.544Z,10.70
2022-09-29T18:43:18.289Z,10.70
2022-09-29T18:45:45.243Z,10.70
2022-09-29T18:48:14.971Z,10.60
2022-09-29T18:50:47.902Z,10.60
2022-09-29T18:53:21.199Z,10.50
2022-09-29T18:55:49.800Z,10.50
2022-09-29T18:58:20.664Z,10.40
2022-09-29T19:00:55.125Z,10.30
2022-09-29T19:03:27.718Z,10.30
2022-09-29T19:05:55.854Z,10.20
2022-09-29T19:08:23.510Z,10.20
2022-09-29T19:10:54.611Z,10.20
2022-09-29T19:13:21.858Z,10.20
2022-09-29T19:15:49.820Z,10.10
2022-09-29T19:18:24.758Z,10.10
2022-09-29T19:20:58.353Z,10.10
2022-09-29T19:23:26.873Z,10.00
2022-09-29T19:25:58.482Z,10.00
2022-09-29T19:28:27.177Z,10.00
2022-09-29T19:30:55.878Z,10.00
2022-09-29T19:33:23.285Z,9.90
2022-09-29T19:35:54.475Z,9.80
2022-09-29T19:38:23.207Z,9.70
2022-09-29T19:40:51.588Z,9.70
2022-09-29T19:43:21.270Z,9.70
2022-09-29T19:45:48.330Z,9.70
2022-09-29T19:48:20.214Z,9.60
2022-09-29T19:51:07.119Z,9.60
2022-09-29T19:53:36.727Z,9.60
2022-09-29T19:56:11.681Z,9.60
2022-09-29T19:58:39.144Z,9.50
2022-09-29T20:01:11.559Z,9.50
2022-09-29T20:03:38.454Z,9.50
2022-09-29T20:06:06.551Z,9.40
2022-09-29T20:08:35.276Z,9.40
2022-09-29T20:11:11.203Z,9.30
2022-09-29T20:13:39.004Z,9.30
2022-09-29T20:16:07.327Z,9.30
2022-09-29T20:18:37.424Z,9.20
2022-09-29T20:21:12.770Z,9.20
2022-09-29T20:23:39.704Z,9.20
2022-09-29T20:26:10.586Z,9.10
2022-09-29T20:28:38.746Z,9.20
2022-09-29T20:31:07.372Z,9.10
2022-09-29T20:33:36.198Z,9.10
2022-09-29T20:36:04.976Z,9.00
2022-09-29T20:38:40.219Z,9.00
2022-09-29T20:41:07.651Z,8.90
2022-09-29T20:43:34.670Z,8.90
2022-09-29T20:46:07.794Z,8.90
2022-09-29T20:48:37.170Z,8.90
2022-09-29T20:51:06.374Z,8.80
2022-09-29T20:53:39.120Z,8.80
2022-09-29T20:56:16.183Z,8.80
2022-09-29T20:58:49.697Z,8.80
2022-09-29T21:01:23.753Z,8.70
2022-09-29T21:03:54.957Z,8.70
2022-09-29T21:06:26.323Z,8.70
2022-09-29T21:08:53.353Z,8.70
2022-09-29T21:11:20.987Z,8.70
2022-09-29T21:13:50.788Z,8.70
2022-09-29T21:16:18.996Z,8.60
2022-09-29T21:18:46.127Z,8.50
2022-09-29T21:21:12.862Z,8.50
2022-09-29T21:23:42.276Z,8.50
2022-09-29T21:26:17.233Z,8.50
2022-09-29T21:28:52.942Z,8.50
2022-09-29T21:31:24.136Z,8.50
2022-09-29T21:33:57.383Z,8.50
2022-09-29T21:36:27.200Z,8.40
2022-09-29T21:38:54.653Z,8.40
2022-09-29T21:41:28.452Z,8.40
2022-09-29T21:44:01.888Z,8.40
2022-09-29T21:46:33.083Z,8.40
2022-09-29T21:49:03.427Z,8.20
2022-09-29T21:51:34.765Z,8.30
2022-09-29T21:54:02.902Z,8.30
2022-09-29T21:56:34.658Z,8.30
2022-09-29T21:59:01.783Z,8.20
2022-09-29T22:01:28.812Z,8.10
2022-09-29T22:03:57.052Z,8.10
2022-09-29T22:06:27.772Z,8.10
2022-09-29T22:08:58.921Z,8.10
2022-09-29T22:11:30.044Z,8.00
2022-09-29T22:13:59.989Z,8.00
2022-09-29T22:16:30.894Z,8.00
2022-09-29T22:19:22.011Z,8.00
2022-09-29T22:21:47.511Z,8.00
2022-09-29T22:24:14.593Z,8.00
2022-09-29T22:26:41.438Z,8.00
2022-09-29T22:29:08.551Z,7.90
2022-09-29T22:31:35.736Z,7.90
2022-09-29T22:34:04.966Z,7.80
2022-09-29T22:36:34.372Z,7.90
2022-09-29T22:39:03.235Z,7.90
2022-09-29T22:41:30.593Z,7.90
2022-09-29T22:43:59.962Z,7.90
2022-09-29T22:46:30.081Z,7.90
2022-09-29T22:48:57.744Z,7.80
2022-09-29T22:51:24.757Z,7.70
2022-09-29T22:53:51.860Z,7.60
2022-09-29T22:56:27.974Z,7.60
2022-09-29T22:58:56.471Z,7.70
2022-09-29T23:01:23.327Z,7.70
2022-09-29T23:03:50.281Z,7.60
2022-09-29T23:06:17.065Z,7.60
2022-09-29T23:08:44.096Z,7.50
2022-09-29T23:11:20.183Z,7.50
2022-09-29T23:13:47.824Z,7.50
2022-09-29T23:16:16.585Z,7.60
2022-09-29T23:18:45.771Z,7.60
2022-09-29T23:21:18.855Z,7.50
2022-09-29T23:23:59.831Z,7.50
2022-09-29T23:26:29.429Z,7.50
2022-09-29T23:28:56.540Z,7.40
2022-09-29T23:31:24.377Z,7.40
2022-09-29T23:33:55.328Z,7.40
2022-09-29T23:36:24.635Z,7.40
2022-09-29T23:39:09.993Z,7.40
2022-09-29T23:41:39.752Z,7.40
2022-09-29T23:44:06.765Z,7.40
2022-09-29T23:46:37.492Z,7.30
2022-09-29T23:49:10.972Z,7.30
2022-09-29T23:51:44.743Z,7.20
2022-09-29T23:54:14.134Z,7.20
2022-09-29T23:56:41.039Z,7.20
2022-09-29T23:59:08.663Z,7.20
